Time;durP1;ratioP1;P1;durP2;ratioP2;P2;SDS_P1;SDS_P2;PMS_P1;PMS_P2;Temp;Humidity;BMP_temperature;BMP_pressure;BME280_temperature;BME280_humidity;BME280_pressure;Samples;Min_cycle;Max_cycle;Signal;HPM_P1;HPM_P2
2022/10/15 00:00:08;;;;;;;;;;;;;;;17.16;72.91;100117.63;4964815;28;122204;-75
2022/10/15 00:02:33;;;;;;;;;;;;;;;17.16;72.71;100114.88;4990611;28;119735;-75
2022/10/15 00:04:59;;;;;;;;;;;;;;;17.17;72.81;100121.91;4955895;28;120933;-75
2022/10/15 00:07:25;;;;;;;;;;;;;;;17.20;72.55;100120.16;4967620;28;120399;-75
2022/10/15 00:09:50;;;;;;;;;;;;;;;17.19;72.77;100116.63;4969368;28;120061;-75
2022/10/15 00:12:16;;;;;;;;;;;;;;;17.20;72.84;100109.06;4981555;28;119840;-75
2022/10/15 00:14:41;;;;;;;;;;;;;;;17.19;72.72;100108.31;4972027;28;119634;-75
2022/10/15 00:17:09;;;;;;;;;;;;;;;17.19;72.83;100108.31;4971193;28;119537;-75
2022/10/15 00:19:34;;;;;;;;;;;;;;;17.21;72.65;100109.81;4968653;28;120450;-75
2022/10/15 00:22:01;;;;;;;;;;;;;;;17.22;72.79;100111.31;4967753;28;119756;-75
2022/10/15 00:24:26;;;;;;;;;;;;;;;17.22;72.71;100106.53;4961316;28;119858;-75
2022/10/15 00:26:52;;;;;;;;;;;;;;;17.24;72.68;100103.25;4952206;28;121259;-75
2022/10/15 00:29:17;;;;;;;;;;;;;;;17.24;72.80;100106.00;4954900;28;120186;-75
2022/10/15 00:31:43;;;;;;;;;;;;;;;17.25;72.89;100102.72;4955414;28;119591;-75
2022/10/15 00:34:09;;;;;;;;;;;;;;;17.26;72.83;100104.25;4967384;28;119979;-75
2022/10/15 00:36:35;;;;;;;;;;;;;;;17.27;72.83;100094.69;4972162;28;120377;-75
2022/10/15 00:39:01;;;;;;;;;;;;;;;17.28;72.79;100087.88;4965989;28;120160;-74
2022/10/15 00:41:30;;;;;;;;;;;;;;;17.29;72.48;100094.19;4976599;28;120008;-75
2022/10/15 00:43:58;;;;;;;;;;;;;;;17.29;72.86;100089.38;4969601;28;120065;-74
2022/10/15 00:46:24;;;;;;;;;;;;;;;17.30;72.87;100090.13;4982985;28;120088;-75
2022/10/15 00:48:58;;;;;;;;;;;;;;;17.31;72.79;100086.09;4956155;28;120197;-74
2022/10/15 00:51:25;;;;;;;;;;;;;;;17.31;72.70;100095.16;4965563;28;119845;-75
2022/10/15 00:53:51;;;;;;;;;;;;;;;17.33;72.75;100092.63;4983147;28;120054;-75
2022/10/15 00:56:19;;;;;;;;;;;;;;;17.34;72.92;100098.94;4967713;28;120093;-75
2022/10/15 00:58:45;;;;;;;;;;;;;;;17.33;72.59;100100.94;4972865;28;119454;-75
2022/10/15 01:01:11;;;;;;;;;;;;;;;17.35;72.79;100100.44;4970859;28;120036;-75
2022/10/15 01:03:37;;;;;;;;;;;;;;;17.35;72.71;100101.19;4979056;28;120101;-75
2022/10/15 01:06:03;;;;;;;;;;;;;;;17.37;72.81;100100.69;4950379;28;119871;-75
2022/10/15 01:08:28;;;;;;;;;;;;;;;17.38;72.69;100105.72;4939234;28;120115;-75
2022/10/15 01:10:59;;;;;;;;;;;;;;;17.38;72.84;100091.09;4949917;28;119795;-74
2022/10/15 01:13:31;;;;;;;;;;;;;;;17.39;72.87;100095.38;4949836;28;119719;-75
2022/10/15 01:16:15;;;;;;;;;;;;;;;17.39;72.63;100095.38;4952558;28;120220;-75
2022/10/15 01:19:06;;;;;;;;;;;;;;;17.38;72.81;100085.56;4932650;28;120276;-75
2022/10/15 01:21:36;;;;;;;;;;;;;;;17.37;72.81;100079.25;4954568;28;120512;-75
2022/10/15 01:24:14;;;;;;;;;;;;;;;17.37;72.70;100076.47;4983651;28;119865;-75
2022/10/15 01:27:07;;;;;;;;;;;;;;;17.39;72.91;100076.72;4949415;28;119592;-74
2022/10/15 01:29:57;;;;;;;;;;;;;;;17.39;72.91;100073.19;4941617;28;119873;-74
2022/10/15 01:32:34;;;;;;;;;;;;;;;17.39;72.94;100073.19;4965115;28;120731;-75
2022/10/15 01:35:07;;;;;;;;;;;;;;;17.40;72.95;100069.91;4968577;28;119972;-75
2022/10/15 01:37:40;;;;;;;;;;;;;;;17.42;72.81;100063.84;4955063;28;119990;-74
2022/10/15 01:40:13;;;;;;;;;;;;;;;17.41;72.88;100062.34;4973348;28;120023;-75
2022/10/15 01:42:44;;;;;;;;;;;;;;;17.41;72.89;100068.66;4935994;28;120003;-75
2022/10/15 01:45:15;;;;;;;;;;;;;;;17.43;72.85;100073.69;4964495;28;119587;-75
2022/10/15 01:48:09;;;;;;;;;;;;;;;17.44;72.80;100069.63;4951739;28;119972;-75
2022/10/15 01:50:37;;;;;;;;;;;;;;;17.45;72.62;100062.81;4971675;28;120077;-75
2022/10/15 01:53:04;;;;;;;;;;;;;;;17.45;72.72;100058.03;4957267;28;119722;-75
2022/10/15 01:55:30;;;;;;;;;;;;;;;17.47;72.83;100054.75;4951368;28;119955;-75
2022/10/15 01:57:59;;;;;;;;;;;;;;;17.48;72.79;100057.00;4941651;28;120027;-74
2022/10/15 02:00:34;;;;;;;;;;;;;;;17.47;72.64;100047.19;4980295;28;119841;-74
2022/10/15 02:03:03;;;;;;;;;;;;;;;17.49;72.69;100038.34;4982739;28;120386;-75
2022/10/15 02:05:30;;;;;;;;;;;;;;;17.51;72.48;100049.72;4975675;28;120019;-75
2022/10/15 02:07:56;;;;;;;;;;;;;;;17.51;72.76;100044.16;4955919;28;119737;-75
2022/10/15 02:10:28;;;;;;;;;;;;;;;17.51;72.68;100044.16;4974870;28;119511;-75
2022/10/15 02:13:03;;;;;;;;;;;;;;;17.52;72.79;100042.13;4956723;28;119592;-75
2022/10/15 02:15:35;;;;;;;;;;;;;;;17.52;72.72;100051.22;4952819;28;121622;-74
2022/10/15 02:18:04;;;;;;;;;;;;;;;17.52;72.68;100040.13;4951825;28;120189;-75
2022/10/15 02:20:36;;;;;;;;;;;;;;;17.50;72.57;100048.16;4969698;28;119969;-75
2022/10/15 02:23:08;;;;;;;;;;;;;;;17.49;72.42;100054.97;4947523;28;120636;-75
2022/10/15 02:25:36;;;;;;;;;;;;;;;17.49;72.50;100043.88;4976236;28;119702;-75
2022/10/15 02:28:26;;;;;;;;;;;;;;;17.49;72.45;100041.88;4958004;28;119647;-74
2022/10/15 02:30:54;;;;;;;;;;;;;;;17.48;72.52;100045.91;4992925;28;120422;-75
2022/10/15 02:33:22;;;;;;;;;;;;;;;17.47;72.54;100044.41;4958980;28;120083;-75
2022/10/15 02:35:49;;;;;;;;;;;;;;;17.47;72.68;100044.41;4966826;28;120144;-75
2022/10/15 02:38:17;;;;;;;;;;;;;;;17.45;72.76;100048.97;4976730;28;119915;-75
2022/10/15 02:40:43;;;;;;;;;;;;;;;17.45;72.79;100060.06;4966795;28;120212;-75
2022/10/15 02:43:10;;;;;;;;;;;;;;;17.44;72.77;100050.22;4956528;28;121842;-75
2022/10/15 02:45:36;;;;;;;;;;;;;;;17.42;72.65;100050.00;4940353;28;120123;-74
2022/10/15 02:48:02;;;;;;;;;;;;;;;17.41;72.75;100046.47;4953191;28;120056;-74
2022/10/15 02:50:27;;;;;;;;;;;;;;;17.41;72.62;100048.50;4977681;28;119911;-75
2022/10/15 02:52:53;;;;;;;;;;;;;;;17.40;72.64;100056.06;4966049;28;120041;-75
2022/10/15 02:55:19;;;;;;;;;;;;;;;17.39;72.70;100048.25;4967203;28;119947;-74
2022/10/15 02:57:44;;;;;;;;;;;;;;;17.38;72.59;100046.75;4963687;28;120085;-74
2022/10/15 03:00:10;;;;;;;;;;;;;;;17.37;72.66;100051.53;4971585;28;119592;-75
2022/10/15 03:02:36;;;;;;;;;;;;;;;17.36;72.27;100049.28;4937834;28;120962;-74
2022/10/15 03:05:02;;;;;;;;;;;;;;;17.35;72.58;100053.31;4958737;28;119725;-75
2022/10/15 03:07:28;;;;;;;;;;;;;;;17.35;72.48;100047.78;4979946;28;119545;-75
2022/10/15 03:09:55;;;;;;;;;;;;;;;17.32;72.29;100057.13;4952595;28;119703;-74
2022/10/15 03:12:22;;;;;;;;;;;;;;;17.31;72.44;100052.84;4955962;28;119741;-74
2022/10/15 03:14:49;;;;;;;;;;;;;;;17.30;72.46;100054.84;4951802;28;120102;-74
2022/10/15 03:17:15;;;;;;;;;;;;;;;17.29;72.32;100049.81;4968516;28;120204;-74
2022/10/15 03:19:41;;;;;;;;;;;;;;;17.27;72.41;100053.13;4970348;28;119492;-73
2022/10/15 03:22:07;;;;;;;;;;;;;;;17.24;72.35;100054.13;4933720;28;121631;-74
2022/10/15 03:24:41;;;;;;;;;;;;;;;17.23;72.30;100057.41;4955161;28;120044;-74
2022/10/15 03:27:07;;;;;;;;;;;;;;;17.23;72.38;100051.84;4955069;28;120032;-74
2022/10/15 03:29:36;;;;;;;;;;;;;;;17.23;72.37;100057.41;4952684;28;120292;-74
2022/10/15 03:32:02;;;;;;;;;;;;;;;17.23;72.41;100054.63;4951576;28;120032;-74
2022/10/15 03:34:30;;;;;;;;;;;;;;;17.22;72.31;100051.09;4950951;28;120072;-74
2022/10/15 03:36:55;;;;;;;;;;;;;;;17.21;72.35;100057.91;4985812;28;119924;-73
2022/10/15 03:39:21;;;;;;;;;;;;;;;17.19;72.22;100058.41;4950894;28;119928;-74
2022/10/15 03:41:52;;;;;;;;;;;;;;;17.15;72.19;100057.94;4974447;28;119333;-73
2022/10/15 03:44:22;;;;;;;;;;;;;;;17.10;72.06;100053.19;4952813;28;119479;-74
2022/10/15 03:46:58;;;;;;;;;;;;;;;17.06;72.08;100049.19;4961821;28;120333;-74
2022/10/15 03:49:33;;;;;;;;;;;;;;;17.02;71.83;100045.91;4936908;28;119547;-74
2022/10/15 03:52:00;;;;;;;;;;;;;;;16.97;72.05;100044.66;4959147;28;120026;-74
2022/10/15 03:54:26;;;;;;;;;;;;;;;16.93;71.81;100049.72;4977083;28;119723;-73
2022/10/15 03:56:52;;;;;;;;;;;;;;;16.87;71.74;100058.06;4971551;28;119563;-74
2022/10/15 03:59:27;;;;;;;;;;;;;;;16.85;71.92;100051.53;4951572;28;119929;-74
2022/10/15 04:01:58;;;;;;;;;;;;;;;16.82;71.83;100058.06;4961523;28;120035;-74
2022/10/15 04:04:24;;;;;;;;;;;;;;;16.78;71.76;100052.78;4960840;28;119738;-74
2022/10/15 04:06:50;;;;;;;;;;;;;;;16.74;71.89;100046.75;4958650;28;119969;-73
2022/10/15 04:09:17;;;;;;;;;;;;;;;16.73;71.68;100052.81;4950814;28;120077;-74
2022/10/15 04:11:42;;;;;;;;;;;;;;;16.69;72.01;100053.06;4960891;28;119620;-74
2022/10/15 04:14:09;;;;;;;;;;;;;;;16.66;71.78;100067.16;4990945;28;119736;-74
2022/10/15 04:16:34;;;;;;;;;;;;;;;16.64;71.86;100061.38;4966901;28;120041;-73
2022/10/15 04:19:08;;;;;;;;;;;;;;;16.61;71.62;100067.91;4959713;28;120004;-73
2022/10/15 04:21:34;;;;;;;;;;;;;;;16.57;71.79;100068.94;4937207;28;120762;-74
2022/10/15 04:24:02;;;;;;;;;;;;;;;16.53;71.54;100062.88;4956906;28;119994;-74
2022/10/15 04:26:33;;;;;;;;;;;;;;;16.50;71.61;100060.38;4943024;28;120012;-74
2022/10/15 04:28:59;;;;;;;;;;;;;;;16.47;71.50;100067.69;4967305;28;119976;-74
2022/10/15 04:31:25;;;;;;;;;;;;;;;16.43;71.53;100069.97;4955318;28;119690;-74
2022/10/15 04:33:52;;;;;;;;;;;;;;;16.39;71.53;100065.94;4971614;28;120439;-74
2022/10/15 04:36:17;;;;;;;;;;;;;;;16.36;71.58;100064.19;4967778;28;119870;-74
2022/10/15 04:38:59;;;;;;;;;;;;;;;16.33;71.51;100071.50;4957000;28;119873;-74
2022/10/15 04:41:33;;;;;;;;;;;;;;;16.30;71.44;100069.72;4955654;28;119460;-74
2022/10/15 04:44:05;;;;;;;;;;;;;;;16.29;71.73;100073.72;4960435;28;120223;-74
2022/10/15 04:46:31;;;;;;;;;;;;;;;16.30;71.83;100074.50;4948914;28;120045;-74
2022/10/15 04:49:01;;;;;;;;;;;;;;;16.29;71.71;100076.50;4951328;28;119504;-74
2022/10/15 04:51:27;;;;;;;;;;;;;;;16.31;72.14;100076.75;4951320;28;119532;-74
2022/10/15 04:54:03;;;;;;;;;;;;;;;16.34;72.19;100081.31;4951295;28;120354;-73
2022/10/15 04:56:30;;;;;;;;;;;;;;;16.35;72.21;100085.56;4971007;28;121350;-73
2022/10/15 04:58:55;;;;;;;;;;;;;;;16.39;72.18;100082.53;4976337;28;119964;-74
2022/10/15 05:01:23;;;;;;;;;;;;;;;16.40;72.24;100087.56;4942012;28;119844;-73
2022/10/15 05:03:57;;;;;;;;;;;;;;;16.41;72.01;100082.78;4973856;28;119819;-74
2022/10/15 05:06:34;;;;;;;;;;;;;;;16.41;72.06;100089.09;4952165;28;119713;-74
2022/10/15 05:09:13;;;;;;;;;;;;;;;16.41;72.03;100089.09;4970402;28;119499;-73
2022/10/15 05:11:42;;;;;;;;;;;;;;;16.42;72.03;100084.31;4940882;28;119804;-74
2022/10/15 05:14:11;;;;;;;;;;;;;;;16.43;72.16;100089.34;4951146;28;119840;-74
2022/10/15 05:16:37;;;;;;;;;;;;;;;16.44;72.31;100090.84;4961984;28;119900;-74
2022/10/15 05:19:04;;;;;;;;;;;;;;;16.45;72.20;100092.34;4961901;28;119455;-74
2022/10/15 05:21:31;;;;;;;;;;;;;;;16.46;72.12;100095.88;4959664;28;119474;-74
2022/10/15 05:24:01;;;;;;;;;;;;;;;16.47;72.11;100089.81;4950980;28;120085;-74
2022/10/15 05:26:58;;;;;;;;;;;;;;;16.49;72.25;100089.31;4962624;28;120199;-73
2022/10/15 05:29:28;;;;;;;;;;;;;;;16.50;72.31;100094.34;4958853;28;120231;-73
2022/10/15 05:31:53;;;;;;;;;;;;;;;16.53;72.35;100093.34;4969031;28;119990;-74
2022/10/15 05:34:23;;;;;;;;;;;;;;;16.56;72.28;100102.63;4968597;28;119656;-73
2022/10/15 05:36:54;;;;;;;;;;;;;;;16.57;72.18;100101.41;4969483;28;120060;-74
2022/10/15 05:39:20;;;;;;;;;;;;;;;16.58;72.35;100094.59;4969015;28;119918;-74
2022/10/15 05:41:45;;;;;;;;;;;;;;;16.58;72.34;100103.66;4972735;28;120004;-74
2022/10/15 05:44:15;;;;;;;;;;;;;;;16.61;72.26;100101.16;4966973;28;119989;-74
2022/10/15 05:46:42;;;;;;;;;;;;;;;16.61;72.31;100093.59;4938031;28;120054;-74
2022/10/15 05:49:09;;;;;;;;;;;;;;;16.62;72.36;100099.88;4949544;28;119875;-74
2022/10/15 05:51:50;;;;;;;;;;;;;;;16.63;72.18;100098.63;4947748;28;119563;-74
2022/10/15 05:54:30;;;;;;;;;;;;;;;16.64;72.63;100100.88;4971193;28;119989;-74
2022/10/15 05:56:56;;;;;;;;;;;;;;;16.66;72.30;100109.47;4971089;28;120286;-74
2022/10/15 05:59:21;;;;;;;;;;;;;;;16.67;72.44;100101.91;4979928;28;119414;-74
2022/10/15 06:01:47;;;;;;;;;;;;;;;16.66;72.19;100098.38;4953295;28;120720;-74
2022/10/15 06:04:17;;;;;;;;;;;;;;;16.69;72.39;100116.00;4972350;28;120034;-74
2022/10/15 06:06:43;;;;;;;;;;;;;;;16.70;72.45;100109.97;4959896;28;119659;-74
2022/10/15 06:09:09;;;;;;;;;;;;;;;16.71;72.33;100116.25;4955225;28;121024;-74
2022/10/15 06:11:35;;;;;;;;;;;;;;;16.73;72.40;100122.03;4984370;28;119733;-74
2022/10/15 06:14:00;;;;;;;;;;;;;;;16.76;72.44;100121.03;4973147;28;120049;-73
2022/10/15 06:16:26;;;;;;;;;;;;;;;16.76;72.36;100118.25;4971678;28;120014;-74
2022/10/15 06:18:52;;;;;;;;;;;;;;;16.78;72.41;100124.03;4994299;28;120038;-74
2022/10/15 06:21:18;;;;;;;;;;;;;;;16.68;72.48;100112.47;4948091;28;119673;-74
2022/10/15 06:23:44;;;;;;;;;;;;;;;16.79;72.51;100125.53;4970442;28;119765;-74
2022/10/15 06:26:10;;;;;;;;;;;;;;;16.81;72.46;100126.56;4974873;28;120222;-73
2022/10/15 06:28:36;;;;;;;;;;;;;;;16.81;72.45;100123.03;4955232;28;120069;-73
2022/10/15 06:31:02;;;;;;;;;;;;;;;16.84;72.43;100133.09;4980327;28;120513;-74
2022/10/15 06:33:30;;;;;;;;;;;;;;;16.85;72.47;100137.38;4960564;28;120236;-74
2022/10/15 06:36:00;;;;;;;;;;;;;;;16.86;72.42;100134.09;4952196;28;122070;-74
2022/10/15 06:38:46;;;;;;;;;;;;;;;16.87;72.36;100137.63;4948065;28;120106;-74
2022/10/15 06:41:37;;;;;;;;;;;;;;;16.89;72.56;100135.09;4970559;28;119434;-74
2022/10/15 06:44:02;;;;;;;;;;;;;;;16.90;72.23;100131.06;4970956;28;119941;-74
2022/10/15 06:46:28;;;;;;;;;;;;;;;16.92;72.59;100128.53;4970423;28;120119;-74
2022/10/15 06:48:54;;;;;;;;;;;;;;;16.91;72.29;100113.19;4979851;28;120695;-74
2022/10/15 06:51:20;;;;;;;;;;;;;;;16.93;72.35;100121.75;4973529;28;119635;-74
2022/10/15 06:53:49;;;;;;;;;;;;;;;16.95;72.40;100121.22;4960633;28;119589;-73
2022/10/15 06:56:14;;;;;;;;;;;;;;;16.96;72.27;100128.28;4973529;28;120066;-74
2022/10/15 06:58:42;;;;;;;;;;;;;;;16.97;72.07;100129.78;4993128;28;119580;-74
2022/10/15 07:01:09;;;;;;;;;;;;;;;16.97;72.16;100132.56;4959902;28;120097;-74
2022/10/15 07:03:35;;;;;;;;;;;;;;;16.99;72.22;100130.78;4957677;28;120571;-74
2022/10/15 07:06:03;;;;;;;;;;;;;;;17.01;72.36;100142.09;4968756;28;120043;-74
2022/10/15 07:08:28;;;;;;;;;;;;;;;17.03;72.26;100142.34;4960752;28;119987;-74
2022/10/15 07:10:54;;;;;;;;;;;;;;;17.05;72.24;100137.09;4972094;28;119598;-73
2022/10/15 07:13:22;;;;;;;;;;;;;;;17.07;72.26;100134.56;4961116;28;119843;-74
2022/10/15 07:15:52;;;;;;;;;;;;;;;17.08;72.20;100141.59;4969840;28;119894;-73
2022/10/15 07:18:18;;;;;;;;;;;;;;;17.09;71.85;100139.59;4971876;28;120284;-74
2022/10/15 07:20:44;;;;;;;;;;;;;;;17.10;72.03;100147.38;4968695;28;119589;-74
2022/10/15 07:23:10;;;;;;;;;;;;;;;17.10;71.83;100144.63;4969889;28;120099;-74
2022/10/15 07:25:35;;;;;;;;;;;;;;;17.11;72.12;100146.13;4959109;28;119593;-73
2022/10/15 07:28:01;;;;;;;;;;;;;;;17.14;71.94;100149.91;4965584;28;120643;-74
2022/10/15 07:30:27;;;;;;;;;;;;;;;17.16;71.98;100147.38;4952733;28;120087;-74
2022/10/15 07:32:54;;;;;;;;;;;;;;;17.17;71.81;100154.41;4970095;28;119875;-74
2022/10/15 07:35:20;;;;;;;;;;;;;;;17.16;71.68;100156.44;4976638;28;120414;-73
2022/10/15 07:37:46;;;;;;;;;;;;;;;17.17;71.87;100149.63;4969576;28;120030;-73
2022/10/15 07:40:17;;;;;;;;;;;;;;;17.21;71.85;100159.69;4969159;28;120113;-74
2022/10/15 07:42:43;;;;;;;;;;;;;;;17.24;71.90;100159.44;4971050;28;120141;-75
2022/10/15 07:45:09;;;;;;;;;;;;;;;17.29;71.86;100161.44;4978490;28;120127;-73
2022/10/15 07:47:34;;;;;;;;;;;;;;;17.35;71.81;100153.09;4976766;28;119582;-74
2022/10/15 07:50:00;;;;;;;;;;;;;;;17.39;71.69;100159.88;4972486;28;119740;-73
2022/10/15 07:52:58;;;;;;;;;;;;;;;17.42;71.72;100150.53;4950500;28;120371;-74
2022/10/15 07:55:24;;;;;;;;;;;;;;;17.47;71.49;100160.09;4960966;28;120565;-74
2022/10/15 07:57:49;;;;;;;;;;;;;;;17.51;71.61;100157.84;4972882;28;120451;-74
2022/10/15 08:00:15;;;;;;;;;;;;;;;17.58;71.62;100159.31;4969649;28;120039;-74
2022/10/15 08:02:42;;;;;;;;;;;;;;;17.60;71.49;100163.09;4972283;28;120347;-74
2022/10/15 08:05:07;;;;;;;;;;;;;;;17.61;71.31;100147.94;4958947;28;119862;-74
2022/10/15 08:07:33;;;;;;;;;;;;;;;17.61;71.26;100161.06;4965744;28;119677;-74
2022/10/15 08:10:00;;;;;;;;;;;;;;;17.61;71.10;100159.03;4966206;28;119626;-74
2022/10/15 08:12:25;;;;;;;;;;;;;;;17.64;71.07;100157.25;4950260;28;119679;-74
2022/10/15 08:14:51;;;;;;;;;;;;;;;17.64;70.81;100162.81;4950882;28;120721;-74
2022/10/15 08:17:18;;;;;;;;;;;;;;;17.65;71.07;100167.84;4947058;28;122280;-73
2022/10/15 08:19:44;;;;;;;;;;;;;;;17.69;71.16;100162.81;4968778;28;120170;-73
2022/10/15 08:22:11;;;;;;;;;;;;;;;17.74;71.25;100159.28;4932794;28;122332;-74
2022/10/15 08:24:36;;;;;;;;;;;;;;;17.79;70.99;100169.56;4964518;28;119580;-73
2022/10/15 08:27:02;;;;;;;;;;;;;;;17.81;70.91;100171.84;4950021;28;119928;-73
2022/10/15 08:29:27;;;;;;;;;;;;;;;17.84;70.86;100164.50;4966286;28;120151;-73
2022/10/15 08:31:53;;;;;;;;;;;;;;;17.83;70.73;100165.78;4964889;28;119586;-73
2022/10/15 08:34:22;;;;;;;;;;;;;;;17.79;70.78;100164.03;4966261;28;119920;-73
2022/10/15 08:36:47;;;;;;;;;;;;;;;17.79;70.79;100166.03;4947263;28;120342;-75
2022/10/15 08:39:14;;;;;;;;;;;;;;;17.81;70.85;100157.22;4950011;28;119464;-73
2022/10/15 08:41:39;;;;;;;;;;;;;;;17.82;70.61;100167.03;4969698;28;119622;-75
2022/10/15 08:44:13;;;;;;;;;;;;;;;17.84;70.84;100156.94;4966705;28;119983;-75
2022/10/15 08:46:43;;;;;;;;;;;;;;;17.90;70.99;100165.97;4950077;28;120660;-75
2022/10/15 08:49:34;;;;;;;;;;;;;;;17.96;70.80;100168.72;4949998;28;120243;-75
2022/10/15 08:52:13;;;;;;;;;;;;;;;18.00;70.86;100160.88;4964312;28;120320;-75
2022/10/15 08:54:39;;;;;;;;;;;;;;;18.04;70.34;100167.66;4960784;28;121415;-75
2022/10/15 08:57:39;;;;;;;;;;;;;;;18.08;70.44;100170.16;4928351;28;120489;-75
2022/10/15 09:00:12;;;;;;;;;;;;;;;18.10;70.50;100167.63;4958260;28;123821;-75
2022/10/15 09:02:46;;;;;;;;;;;;;;;18.13;70.33;100180.47;4962775;28;119501;-75
2022/10/15 09:05:25;;;;;;;;;;;;;;;18.16;70.27;100178.69;4961127;28;119639;-75
2022/10/15 09:07:50;;;;;;;;;;;;;;;18.19;70.38;100178.41;4957967;28;120052;-75
2022/10/15 09:10:23;;;;;;;;;;;;;;;18.23;70.33;100175.38;4959217;28;121451;-74
2022/10/15 09:12:57;;;;;;;;;;;;;;;18.24;70.13;100174.09;4960082;28;121208;-75
2022/10/15 09:15:24;;;;;;;;;;;;;;;18.26;70.20;100175.09;4944340;28;120431;-75
2022/10/15 09:17:50;;;;;;;;;;;;;;;18.31;70.25;100159.66;4943392;28;119986;-75
2022/10/15 09:20:30;;;;;;;;;;;;;;;18.35;69.92;100162.91;4961973;28;119768;-75
2022/10/15 09:22:56;;;;;;;;;;;;;;;18.39;69.97;100168.91;4943142;28;119979;-75
2022/10/15 09:25:23;;;;;;;;;;;;;;;18.44;70.01;100164.59;4960922;28;119908;-75
2022/10/15 09:27:50;;;;;;;;;;;;;;;18.48;69.95;100170.63;4970563;28;120342;-75
2022/10/15 09:30:22;;;;;;;;;;;;;;;18.49;69.82;100174.91;4956643;28;120088;-73
2022/10/15 09:32:50;;;;;;;;;;;;;;;18.48;69.54;100173.41;4971541;28;121503;-75
2022/10/15 09:35:19;;;;;;;;;;;;;;;18.45;69.40;100177.19;4960799;28;119936;-74
2022/10/15 09:38:00;;;;;;;;;;;;;;;18.41;69.35;100177.47;4939243;28;119680;-74
2022/10/15 09:40:28;;;;;;;;;;;;;;;18.37;69.35;100177.75;4958521;28;120227;-75
2022/10/15 09:42:55;;;;;;;;;;;;;;;18.36;69.35;100184.59;4958443;28;119694;-75
2022/10/15 09:45:24;;;;;;;;;;;;;;;18.35;69.32;100177.53;4958744;28;119585;-75
2022/10/15 09:47:50;;;;;;;;;;;;;;;18.38;69.53;100186.84;4965473;28;120023;-74
2022/10/15 09:50:15;;;;;;;;;;;;;;;18.39;69.47;100175.22;4937060;28;119767;-75
2022/10/15 09:53:04;;;;;;;;;;;;;;;18.42;69.24;100182.50;4956505;28;119723;-75
2022/10/15 09:55:39;;;;;;;;;;;;;;;18.42;69.19;100184.53;4958213;28;119939;-75
2022/10/15 09:58:12;;;;;;;;;;;;;;;18.41;69.01;100181.00;4954248;28;119626;-74
2022/10/15 10:00:52;;;;;;;;;;;;;;;18.42;69.54;100179.75;4944345;28;120211;-75
2022/10/15 10:03:18;;;;;;;;;;;;;;;18.44;69.28;100182.00;4944827;28;119658;-75
2022/10/15 10:05:48;;;;;;;;;;;;;;;18.47;69.32;100177.47;4972031;28;120277;-75
2022/10/15 10:08:23;;;;;;;;;;;;;;;18.48;69.11;100178.97;4958447;28;119585;-75
2022/10/15 10:10:53;;;;;;;;;;;;;;;18.46;68.81;100175.94;4960138;28;120631;-74
2022/10/15 10:13:45;;;;;;;;;;;;;;;18.42;68.91;100174.19;4956713;28;119966;-75
2022/10/15 10:16:12;;;;;;;;;;;;;;;18.46;69.60;100173.94;4957722;28;119949;-75
2022/10/15 10:18:38;;;;;;;;;;;;;;;18.49;69.13;100174.91;4958531;28;120073;-75
2022/10/15 10:21:20;;;;;;;;;;;;;;;18.48;69.08;100170.63;4928959;28;119713;-75
2022/10/15 10:23:46;;;;;;;;;;;;;;;18.46;68.93;100167.63;4940564;28;119991;-74
2022/10/15 10:26:13;;;;;;;;;;;;;;;18.44;68.75;100175.69;4958902;28;120158;-75
2022/10/15 10:28:49;;;;;;;;;;;;;;;18.40;68.87;100176.72;4960681;28;120029;-75
2022/10/15 10:31:15;;;;;;;;;;;;;;;18.37;68.82;100180.53;4958866;28;120516;-74
2022/10/15 10:33:41;;;;;;;;;;;;;;;18.34;68.83;100178.06;4961183;28;120293;-75
2022/10/15 10:36:33;;;;;;;;;;;;;;;18.33;69.20;100179.31;4919040;28;120497;-75
2022/10/15 10:38:59;;;;;;;;;;;;;;;18.35;68.96;100169.19;4961218;28;121278;-75
2022/10/15 10:42:09;;;;;;;;;;;;;;;18.31;68.85;100160.41;4959691;28;120242;-75
2022/10/15 10:44:45;;;;;;;;;;;;;;;18.27;68.97;100171.03;4940931;28;121915;-74
2022/10/15 10:47:14;;;;;;;;;;;;;;;18.23;68.92;100169.81;4962562;28;120202;-75
2022/10/15 10:49:49;;;;;;;;;;;;;;;18.20;69.16;100176.38;4961359;28;119160;-75
2022/10/15 10:52:43;;;;;;;;;;;;;;;18.18;69.41;100165.78;4910220;28;120185;-75
2022/10/15 10:55:16;;;;;;;;;;;;;;;18.15;69.16;100169.59;4944530;28;120756;-75
2022/10/15 10:57:46;;;;;;;;;;;;;;;18.16;69.32;100168.31;4966842;28;120204;-75
2022/10/15 11:00:14;;;;;;;;;;;;;;;18.10;69.32;100168.38;4961188;28;120079;-74
2022/10/15 11:02:42;;;;;;;;;;;;;;;18.09;69.53;100160.56;4963597;28;120548;-75
2022/10/15 11:05:09;;;;;;;;;;;;;;;18.09;69.57;100155.00;4962170;28;120074;-74
2022/10/15 11:08:05;;;;;;;;;;;;;;;18.07;69.60;100154.78;4974205;28;120098;-75
2022/10/15 11:11:07;;;;;;;;;;;;;;;18.06;69.87;100150.50;4962387;28;119686;-74
2022/10/15 11:13:46;;;;;;;;;;;;;;;18.07;69.98;100161.06;4961155;28;120023;-74
2022/10/15 11:16:33;;;;;;;;;;;;;;;18.08;69.80;100159.06;4955083;28;120126;-75
2022/10/15 11:19:09;;;;;;;;;;;;;;;18.08;69.75;100153.50;4951415;28;120591;-75
2022/10/15 11:21:41;;;;;;;;;;;;;;;18.08;69.89;100157.03;4965623;28;120084;-75
2022/10/15 11:24:15;;;;;;;;;;;;;;;18.12;70.15;100144.91;4968176;28;119968;-75
2022/10/15 11:26:49;;;;;;;;;;;;;;;18.16;70.26;100137.78;4947554;28;120193;-74
2022/10/15 11:29:23;;;;;;;;;;;;;;;18.18;70.02;100151.91;4968070;28;119944;-75
2022/10/15 11:31:54;;;;;;;;;;;;;;;18.19;69.83;100156.19;4964778;28;119819;-75
2022/10/15 11:34:36;;;;;;;;;;;;;;;18.23;70.08;100150.38;4963468;28;120837;-75
2022/10/15 11:37:17;;;;;;;;;;;;;;;18.24;70.10;100152.63;4961529;28;120165;-75
2022/10/15 11:39:43;;;;;;;;;;;;;;;18.27;70.27;100150.84;4961567;28;119577;-75
2022/10/15 11:42:15;;;;;;;;;;;;;;;18.30;70.07;100147.78;4953700;28;120202;-75
2022/10/15 11:44:41;;;;;;;;;;;;;;;18.36;70.22;100148.50;4934966;28;120105;-75
2022/10/15 11:47:26;;;;;;;;;;;;;;;18.42;69.83;100151.97;4950587;28;120262;-75
2022/10/15 11:49:52;;;;;;;;;;;;;;;18.49;70.08;100153.44;4966992;28;120044;-75
2022/10/15 11:52:18;;;;;;;;;;;;;;;18.52;69.64;100149.63;4948980;28;119911;-74
2022/10/15 11:55:03;;;;;;;;;;;;;;;18.53;69.82;100153.16;4967941;28;120032;-75
2022/10/15 11:57:31;;;;;;;;;;;;;;;18.55;69.52;100150.63;4964624;28;120064;-75
2022/10/15 12:00:04;;;;;;;;;;;;;;;18.57;69.73;100148.81;4966400;28;119910;-75
2022/10/15 12:02:38;;;;;;;;;;;;;;;18.62;69.60;100141.72;4949143;28;119845;-75
2022/10/15 12:05:03;;;;;;;;;;;;;;;18.63;69.67;100135.66;4939320;28;120747;-75
2022/10/15 12:07:32;;;;;;;;;;;;;;;18.70;69.50;100132.34;4967433;28;119663;-75
2022/10/15 12:10:24;;;;;;;;;;;;;;;18.79;69.75;100122.13;4965081;28;120472;-75
2022/10/15 12:13:02;;;;;;;;;;;;;;;18.90;69.60;100122.00;4924274;28;120448;-75
2022/10/15 12:15:31;;;;;;;;;;;;;;;18.94;69.23;100126.03;4967231;28;119916;-74
2022/10/15 12:18:09;;;;;;;;;;;;;;;18.98;69.12;100123.72;4948653;28;119715;-75
2022/10/15 12:20:35;;;;;;;;;;;;;;;19.01;69.05;100119.88;4966658;28;120381;-75
2022/10/15 12:23:01;;;;;;;;;;;;;;;19.05;68.62;100118.81;4967169;28;119544;-75
2022/10/15 12:25:39;;;;;;;;;;;;;;;19.02;68.49;100121.38;4964844;28;120075;-74
2022/10/15 12:28:25;;;;;;;;;;;;;;;19.02;68.46;100113.03;4952274;28;120394;-75
2022/10/15 12:30:53;;;;;;;;;;;;;;;19.04;68.41;100106.97;4948438;28;121189;-75
2022/10/15 12:33:24;;;;;;;;;;;;;;;19.09;68.33;100114.47;4966341;28;119625;-75
2022/10/15 12:35:54;;;;;;;;;;;;;;;19.12;68.33;100110.66;4967013;28;120387;-75
2022/10/15 12:38:20;;;;;;;;;;;;;;;19.12;67.85;100098.78;4963374;28;120398;-75
2022/10/15 12:40:46;;;;;;;;;;;;;;;19.08;67.67;100103.88;4963953;28;120751;-75
2022/10/15 12:43:13;;;;;;;;;;;;;;;19.06;67.72;100101.63;4947952;28;120304;-75